sensor_id;sensor_type;location;lat;lon;timestamp;pressure;altitude;pressure_sealevel;temperature;humidity
33185;BME280;19550;42.872;25.494;2023-04-09T00:00:25;96704.97;;;3.69;100.00
33185;BME280;19550;42.872;25.494;2023-04-09T00:02:52;96703.00;;;3.49;100.00
33185;BME280;19550;42.872;25.494;2023-04-09T00:05:20;96704.34;;;3.42;100.00
33185;BME280;19550;42.872;25.494;2023-04-09T00:07:47;96711.44;;;3.38;100.00
33185;BME280;19550;42.872;25.494;2023-04-09T00:10:14;96710.63;;;3.37;100.00
33185;BME280;19550;42.872;25.494;2023-04-09T00:12:40;96713.63;;;3.36;100.00
33185;BME280;19550;42.872;25.494;2023-04-09T00:15:08;96712.53;;;3.32;100.00
33185;BME280;19550;42.872;25.494;2023-04-09T00:17:35;96716.09;;;3.32;100.00
33185;BME280;19550;42.872;25.494;2023-04-09T00:20:02;96720.94;;;3.20;100.00
33185;BME280;19550;42.872;25.494;2023-04-09T00:22:30;96719.25;;;3.14;100.00
33185;BME280;19550;42.872;25.494;2023-04-09T00:24:57;96723.09;;;3.13;100.00
33185;BME280;19550;42.872;25.494;2023-04-09T00:27:24;96720.34;;;3.13;100.00
33185;BME280;19550;42.872;25.494;2023-04-09T00:29:52;96718.41;;;3.08;100.00
33185;BME280;19550;42.872;25.494;2023-04-09T00:32:20;96719.97;;;2.94;100.00
33185;BME280;19550;42.872;25.494;2023-04-09T00:34:47;96724.44;;;3.05;100.00
33185;BME280;19550;42.872;25.494;2023-04-09T00:37:14;96721.00;;;2.83;100.00
33185;BME280;19550;42.872;25.494;2023-04-09T00:39:42;96725.91;;;2.81;100.00
33185;BME280;19550;42.872;25.494;2023-04-09T00:42:09;96720.44;;;2.81;100.00
33185;BME280;19550;42.872;25.494;2023-04-09T00:44:36;96720.16;;;2.77;100.00
33185;BME280;19550;42.872;25.494;2023-04-09T00:47:03;96719.31;;;2.77;100.00
33185;BME280;19550;42.872;25.494;2023-04-09T00:49:30;96720.16;;;2.77;100.00
33185;BME280;19550;42.872;25.494;2023-04-09T00:51:58;96721.22;;;2.76;100.00
33185;BME280;19550;42.872;25.494;2023-04-09T00:54:25;96713.59;;;2.78;100.00
33185;BME280;19550;42.872;25.494;2023-04-09T00:56:54;96712.16;;;2.71;100.00
33185;BME280;19550;42.872;25.494;2023-04-09T00:59:21;96718.13;;;2.63;100.00
33185;BME280;19550;42.872;25.494;2023-04-09T01:01:50;96712.88;;;2.56;100.00
33185;BME280;19550;42.872;25.494;2023-04-09T01:04:17;96715.03;;;2.54;100.00
33185;BME280;19550;42.872;25.494;2023-04-09T01:06:50;96721.59;;;2.53;100.00
33185;BME280;19550;42.872;25.494;2023-04-09T01:09:23;96719.78;;;2.64;100.00
33185;BME280;19550;42.872;25.494;2023-04-09T01:12:01;96717.69;;;2.44;100.00
33185;BME280;19550;42.872;25.494;2023-04-09T01:14:38;96720.63;;;2.32;100.00
33185;BME280;19550;42.872;25.494;2023-04-09T01:17:07;96712.47;;;2.37;100.00
33185;BME280;19550;42.872;25.494;2023-04-09T01:19:43;96714.47;;;2.20;100.00
33185;BME280;19550;42.872;25.494;2023-04-09T01:22:23;96709.72;;;2.06;100.00
33185;BME280;19550;42.872;25.494;2023-04-09T01:25:01;96717.22;;;2.20;100.00
33185;BME280;19550;42.872;25.494;2023-04-09T01:27:38;96717.44;;;2.14;100.00
33185;BME280;19550;42.872;25.494;2023-04-09T01:30:11;96717.44;;;2.14;100.00
33185;BME280;19550;42.872;25.494;2023-04-09T01:32:41;96717.72;;;2.12;100.00
33185;BME280;19550;42.872;25.494;2023-04-09T01:35:09;96718.38;;;2.24;100.00
33185;BME280;19550;42.872;25.494;2023-04-09T01:37:37;96709.75;;;2.11;100.00
33185;BME280;19550;42.872;25.494;2023-04-09T01:40:06;96726.66;;;2.08;100.00
33185;BME280;19550;42.872;25.494;2023-04-09T01:42:34;96719.81;;;2.05;100.00
33185;BME280;19550;42.872;25.494;2023-04-09T01:45:04;96718.41;;;2.03;100.00
33185;BME280;19550;42.872;25.494;2023-04-09T01:47:33;96723.09;;;2.07;100.00
33185;BME280;19550;42.872;25.494;2023-04-09T01:50:01;96710.44;;;1.96;100.00
33185;BME280;19550;42.872;25.494;2023-04-09T01:52:28;96711.91;;;2.09;100.00
33185;BME280;19550;42.872;25.494;2023-04-09T01:54:55;96714.28;;;2.00;100.00
33185;BME280;19550;42.872;25.494;2023-04-09T01:57:22;96715.03;;;1.90;100.00
33185;BME280;19550;42.872;25.494;2023-04-09T01:59:49;96713.94;;;1.91;100.00
33185;BME280;19550;42.872;25.494;2023-04-09T02:02:19;96713.84;;;1.81;100.00
33185;BME280;19550;42.872;25.494;2023-04-09T02:04:52;96711.69;;;1.83;100.00
33185;BME280;19550;42.872;25.494;2023-04-09T02:07:29;96720.44;;;1.85;100.00
33185;BME280;19550;42.872;25.494;2023-04-09T02:09:59;96716.09;;;1.89;100.00
33185;BME280;19550;42.872;25.494;2023-04-09T02:12:28;96720.28;;;1.97;100.00
33185;BME280;19550;42.872;25.494;2023-04-09T02:14:57;96720.16;;;1.87;100.00
33185;BME280;19550;42.872;25.494;2023-04-09T02:17:24;96708.16;;;1.88;100.00
33185;BME280;19550;42.872;25.494;2023-04-09T02:19:53;96723.22;;;1.90;100.00
33185;BME280;19550;42.872;25.494;2023-04-09T02:22:19;96719.13;;;1.93;100.00
33185;BME280;19550;42.872;25.494;2023-04-09T02:24:46;96728.16;;;1.93;100.00
33185;BME280;19550;42.872;25.494;2023-04-09T02:27:13;96725.09;;;1.85;100.00
33185;BME280;19550;42.872;25.494;2023-04-09T02:29:40;96724.88;;;1.91;100.00
33185;BME280;19550;42.872;25.494;2023-04-09T02:32:07;96718.25;;;1.87;100.00
33185;BME280;19550;42.872;25.494;2023-04-09T02:34:34;96731.44;;;1.90;100.00
33185;BME280;19550;42.872;25.494;2023-04-09T02:37:02;96731.38;;;1.85;100.00
33185;BME280;19550;42.872;25.494;2023-04-09T02:39:29;96725.72;;;1.92;100.00
33185;BME280;19550;42.872;25.494;2023-04-09T02:41:56;96725.97;;;1.90;100.00
33185;BME280;19550;42.872;25.494;2023-04-09T02:44:23;96727.81;;;1.85;100.00
33185;BME280;19550;42.872;25.494;2023-04-09T02:46:50;96728.06;;;1.83;100.00
33185;BME280;19550;42.872;25.494;2023-04-09T02:49:17;96729.56;;;1.96;100.00
33185;BME280;19550;42.872;25.494;2023-04-09T02:51:43;96726.84;;;1.96;100.00
33185;BME280;19550;42.872;25.494;2023-04-09T02:54:12;96716.97;;;1.95;100.00
33185;BME280;19550;42.872;25.494;2023-04-09T02:56:38;96735.03;;;1.96;100.00
33185;BME280;19550;42.872;25.494;2023-04-09T02:59:05;96731.44;;;1.90;100.00
33185;BME280;19550;42.872;25.494;2023-04-09T03:01:32;96735.44;;;1.83;100.00
33185;BME280;19550;42.872;25.494;2023-04-09T03:03:59;96730.22;;;1.81;100.00
33185;BME280;19550;42.872;25.494;2023-04-09T03:06:26;96731.44;;;1.90;100.00
33185;BME280;19550;42.872;25.494;2023-04-09T03:08:53;96734.88;;;1.81;100.00
33185;BME280;19550;42.872;25.494;2023-04-09T03:11:21;96735.94;;;1.80;100.00
33185;BME280;19550;42.872;25.494;2023-04-09T03:13:48;96735.75;;;1.86;100.00
33185;BME280;19550;42.872;25.494;2023-04-09T03:16:14;96736.13;;;1.95;100.00
33185;BME280;19550;42.872;25.494;2023-04-09T03:18:41;96731.69;;;1.89;100.00
33185;BME280;19550;42.872;25.494;2023-04-09T03:21:08;96733.53;;;1.83;100.00
33185;BME280;19550;42.872;25.494;2023-04-09T03:23:35;96736.53;;;1.82;100.00
33185;BME280;19550;42.872;25.494;2023-04-09T03:26:02;96739.78;;;1.79;100.00
33185;BME280;19550;42.872;25.494;2023-04-09T03:28:31;96739.22;;;1.77;100.00
33185;BME280;19550;42.872;25.494;2023-04-09T03:30:58;96745.53;;;1.82;100.00
33185;BME280;19550;42.872;25.494;2023-04-09T03:33:25;96735.06;;;1.74;100.00
33185;BME280;19550;42.872;25.494;2023-04-09T03:35:51;96741.41;;;1.80;100.00
33185;BME280;19550;42.872;25.494;2023-04-09T03:38:18;96746.06;;;1.79;100.00
33185;BME280;19550;42.872;25.494;2023-04-09T03:40:45;96745.78;;;1.81;100.00
33185;BME280;19550;42.872;25.494;2023-04-09T03:43:12;96737.97;;;1.89;100.00
33185;BME280;19550;42.872;25.494;2023-04-09T03:45:40;96747.81;;;1.90;100.00
33185;BME280;19550;42.872;25.494;2023-04-09T03:48:07;96747.81;;;1.90;100.00
33185;BME280;19550;42.872;25.494;2023-04-09T03:50:37;96751.59;;;1.84;100.00
33185;BME280;19550;42.872;25.494;2023-04-09T03:53:04;96755.66;;;1.82;100.00
33185;BME280;19550;42.872;25.494;2023-04-09T03:55:31;96754.31;;;1.84;100.00
33185;BME280;19550;42.872;25.494;2023-04-09T03:57:58;96756.53;;;1.87;100.00
33185;BME280;19550;42.872;25.494;2023-04-09T04:00:25;96757.34;;;1.88;100.00
33185;BME280;19550;42.872;25.494;2023-04-09T04:02:53;96755.16;;;1.85;100.00
33185;BME280;19550;42.872;25.494;2023-04-09T04:05:22;96753.88;;;1.92;100.00
33185;BME280;19550;42.872;25.494;2023-04-09T04:07:49;96754.81;;;1.81;100.00
33185;BME280;19550;42.872;25.494;2023-04-09T04:10:16;96753.16;;;1.80;100.00
33185;BME280;19550;42.872;25.494;2023-04-09T04:12:43;96755.91;;;1.80;100.00
33185;BME280;19550;42.872;25.494;2023-04-09T04:15:10;96752.47;;;1.90;100.00
33185;BME280;19550;42.872;25.494;2023-04-09T04:17:37;96754.16;;;1.96;100.00
33185;BME280;19550;42.872;25.494;2023-04-09T04:20:07;96754.84;;;2.08;100.00
33185;BME280;19550;42.872;25.494;2023-04-09T04:22:34;96753.66;;;2.26;100.00
33185;BME280;19550;42.872;25.494;2023-04-09T04:25:01;96751.03;;;2.41;100.00
33185;BME280;19550;42.872;25.494;2023-04-09T04:27:27;96748.25;;;2.36;100.00
33185;BME280;19550;42.872;25.494;2023-04-09T04:29:56;96749.91;;;2.37;100.00
33185;BME280;19550;42.872;25.494;2023-04-09T04:32:23;96756.00;;;2.44;100.00
33185;BME280;19550;42.872;25.494;2023-04-09T04:34:50;96750.06;;;2.52;100.00
33185;BME280;19550;42.872;25.494;2023-04-09T04:37:18;96752.00;;;2.57;100.00
33185;BME280;19550;42.872;25.494;2023-04-09T04:39:45;96758.97;;;2.74;100.00
33185;BME280;19550;42.872;25.494;2023-04-09T04:42:11;96751.94;;;2.84;100.00
33185;BME280;19550;42.872;25.494;2023-04-09T04:44:38;96764.75;;;2.78;100.00
33185;BME280;19550;42.872;25.494;2023-04-09T04:47:05;96760.53;;;3.02;100.00
33185;BME280;19550;42.872;25.494;2023-04-09T04:49:32;96758.41;;;3.09;100.00
33185;BME280;19550;42.872;25.494;2023-04-09T04:51:59;96767.13;;;3.06;100.00
33185;BME280;19550;42.872;25.494;2023-04-09T04:54:27;96762.53;;;3.12;100.00
33185;BME280;19550;42.872;25.494;2023-04-09T04:56:54;96765.28;;;3.17;100.00
33185;BME280;19550;42.872;25.494;2023-04-09T04:59:20;96758.16;;;3.16;100.00
33185;BME280;19550;42.872;25.494;2023-04-09T05:01:47;96765.69;;;3.41;100.00
33185;BME280;19550;42.872;25.494;2023-04-09T05:04:14;96774.47;;;3.38;100.00
33185;BME280;19550;42.872;25.494;2023-04-09T05:06:41;96760.31;;;3.61;100.00
33185;BME280;19550;42.872;25.494;2023-04-09T05:09:08;96760.88;;;3.68;100.00
33185;BME280;19550;42.872;25.494;2023-04-09T05:11:36;96764.19;;;3.70;100.00
33185;BME280;19550;42.872;25.494;2023-04-09T05:14:03;96769.94;;;3.74;100.00
33185;BME280;19550;42.872;25.494;2023-04-09T05:16:30;96769.69;;;3.70;100.00
33185;BME280;19550;42.872;25.494;2023-04-09T05:18:57;96770.50;;;3.71;100.00
33185;BME280;19550;42.872;25.494;2023-04-09T05:21:24;96770.28;;;3.82;100.00
33185;BME280;19550;42.872;25.494;2023-04-09T05:23:51;96768.34;;;3.83;100.00
33185;BME280;19550;42.872;25.494;2023-04-09T05:26:18;96762.31;;;3.86;100.00
33185;BME280;19550;42.872;25.494;2023-04-09T05:28:47;96779.91;;;3.95;100.00
33185;BME280;19550;42.872;25.494;2023-04-09T05:31:14;96771.13;;;3.93;100.00
33185;BME280;19550;42.872;25.494;2023-04-09T05:33:41;96772.00;;;4.04;100.00
33185;BME280;19550;42.872;25.494;2023-04-09T05:36:13;96778.06;;;4.21;100.00
33185;BME280;19550;42.872;25.494;2023-04-09T05:38:40;96779.19;;;4.25;100.00
33185;BME280;19550;42.872;25.494;2023-04-09T05:41:06;96780.00;;;4.25;100.00
33185;BME280;19550;42.872;25.494;2023-04-09T05:43:33;96775.56;;;4.19;100.00
33185;BME280;19550;42.872;25.494;2023-04-09T05:46:02;96774.53;;;4.30;100.00
33185;BME280;19550;42.872;25.494;2023-04-09T05:48:29;96773.16;;;4.43;100.00
33185;BME280;19550;42.872;25.494;2023-04-09T05:50:56;96774.81;;;4.54;100.00
33185;BME280;19550;42.872;25.494;2023-04-09T05:53:22;96771.81;;;4.61;100.00
33185;BME280;19550;42.872;25.494;2023-04-09T05:55:49;96776.47;;;4.86;100.00
33185;BME280;19550;42.872;25.494;2023-04-09T05:58:16;96772.09;;;5.05;100.00
33185;BME280;19550;42.872;25.494;2023-04-09T06:00:44;96764.88;;;5.34;100.00
33185;BME280;19550;42.872;25.494;2023-04-09T06:03:12;96766.75;;;5.54;100.00
33185;BME280;19550;42.872;25.494;2023-04-09T06:05:39;96767.03;;;5.57;100.00
33185;BME280;19550;42.872;25.494;2023-04-09T06:08:05;96762.28;;;5.78;100.00
33185;BME280;19550;42.872;25.494;2023-04-09T06:10:32;96762.22;;;5.93;100.00
33185;BME280;19550;42.872;25.494;2023-04-09T06:12:59;96764.38;;;6.07;100.00
33185;BME280;19550;42.872;25.494;2023-04-09T06:15:26;96751.63;;;6.21;100.00
33185;BME280;19550;42.872;25.494;2023-04-09T06:17:53;96757.31;;;6.34;100.00
33185;BME280;19550;42.872;25.494;2023-04-09T06:20:21;96750.81;;;6.64;100.00
33185;BME280;19550;42.872;25.494;2023-04-09T06:22:48;96751.66;;;6.94;100.00
33185;BME280;19550;42.872;25.494;2023-04-09T06:25:15;96754.28;;;7.09;100.00
33185;BME280;19550;42.872;25.494;2023-04-09T06:27:42;96754.28;;;7.09;100.00
33185;BME280;19550;42.872;25.494;2023-04-09T06:30:10;96749.91;;;7.32;100.00
33185;BME280;19550;42.872;25.494;2023-04-09T06:32:36;96743.81;;;7.58;100.00
33185;BME280;19550;42.872;25.494;2023-04-09T06:35:04;96748.59;;;7.77;100.00
33185;BME280;19550;42.872;25.494;2023-04-09T06:37:34;96744.44;;;7.98;100.00
33185;BME280;19550;42.872;25.494;2023-04-09T06:40:01;96743.88;;;8.01;100.00
33185;BME280;19550;42.872;25.494;2023-04-09T06:42:27;96753.66;;;8.12;100.00
33185;BME280;19550;42.872;25.494;2023-04-09T06:44:55;96747.72;;;8.24;100.00
33185;BME280;19550;42.872;25.494;2023-04-09T06:47:22;96752.75;;;8.41;100.00
33185;BME280;19550;42.872;25.494;2023-04-09T06:49:48;96744.00;;;8.52;100.00
33185;BME280;19550;42.872;25.494;2023-04-09T06:52:15;96738.06;;;8.77;100.00
33185;BME280;19550;42.872;25.494;2023-04-09T06:54:43;96744.03;;;9.03;99.79
33185;BME280;19550;42.872;25.494;2023-04-09T06:57:11;96736.09;;;9.15;99.36
33185;BME280;19550;42.872;25.494;2023-04-09T06:59:38;96736.75;;;9.40;97.70
33185;BME280;19550;42.872;25.494;2023-04-09T07:02:05;96733.38;;;9.43;97.67
33185;BME280;19550;42.872;25.494;2023-04-09T07:04:33;96729.81;;;9.56;92.42
33185;BME280;19550;42.872;25.494;2023-04-09T07:07:00;96733.81;;;9.64;92.54
33185;BME280;19550;42.872;25.494;2023-04-09T07:09:26;96727.84;;;9.84;92.84
33185;BME280;19550;42.872;25.494;2023-04-09T07:11:55;96718.50;;;10.07;92.16
33185;BME280;19550;42.872;25.494;2023-04-09T07:14:22;96723.84;;;10.17;89.25
33185;BME280;19550;42.872;25.494;2023-04-09T07:16:48;96727.13;;;10.33;89.74
33185;BME280;19550;42.872;25.494;2023-04-09T07:19:15;96720.94;;;10.50;88.71
33185;BME280;19550;42.872;25.494;2023-04-09T07:21:42;96724.28;;;10.60;88.06
33185;BME280;19550;42.872;25.494;2023-04-09T07:24:09;96718.47;;;10.70;85.24
33185;BME280;19550;42.872;25.494;2023-04-09T07:26:36;96718.38;;;10.98;84.09
33185;BME280;19550;42.872;25.494;2023-04-09T07:29:04;96712.53;;;11.30;83.28
33185;BME280;19550;42.872;25.494;2023-04-09T07:31:31;96707.59;;;11.49;77.12
33185;BME280;19550;42.872;25.494;2023-04-09T07:33:58;96708.81;;;11.66;74.78
33185;BME280;19550;42.872;25.494;2023-04-09T07:36:25;96710.06;;;11.90;74.24
33185;BME280;19550;42.872;25.494;2023-04-09T07:38:52;96702.63;;;12.17;68.43
33185;BME280;19550;42.872;25.494;2023-04-09T07:41:19;96707.28;;;12.47;68.22
33185;BME280;19550;42.872;25.494;2023-04-09T07:43:46;96703.19;;;12.79;66.40
33185;BME280;19550;42.872;25.494;2023-04-09T07:46:18;96706.13;;;13.08;59.06
33185;BME280;19550;42.872;25.494;2023-04-09T07:48:46;96708.59;;;12.84;51.98
33185;BME280;19550;42.872;25.494;2023-04-09T07:51:13;96698.94;;;12.99;55.41
33185;BME280;19550;42.872;25.494;2023-04-09T07:53:40;96697.78;;;13.26;53.09
33185;BME280;19550;42.872;25.494;2023-04-09T07:56:07;96710.38;;;13.32;51.57
33185;BME280;19550;42.872;25.494;2023-04-09T07:58:35;96706.75;;;13.40;52.62
33185;BME280;19550;42.872;25.494;2023-04-09T08:01:02;96705.88;;;13.57;53.76
33185;BME280;19550;42.872;25.494;2023-04-09T08:03:31;96701.63;;;13.59;51.28
33185;BME280;19550;42.872;25.494;2023-04-09T08:05:57;96707.19;;;13.59;54.44
33185;BME280;19550;42.872;25.494;2023-04-09T08:08:24;96702.66;;;13.84;52.14
33185;BME280;19550;42.872;25.494;2023-04-09T08:10:51;96704.47;;;14.18;49.63
33185;BME280;19550;42.872;25.494;2023-04-09T08:13:18;96712.59;;;14.40;49.47
33185;BME280;19550;42.872;25.494;2023-04-09T08:15:44;96704.91;;;14.58;48.51
33185;BME280;19550;42.872;25.494;2023-04-09T08:18:11;96712.66;;;14.52;44.97
33185;BME280;19550;42.872;25.494;2023-04-09T08:20:40;96706.16;;;14.69;45.87
33185;BME280;19550;42.872;25.494;2023-04-09T08:23:09;96707.50;;;14.63;46.34
33185;BME280;19550;42.872;25.494;2023-04-09T08:25:36;96702.06;;;14.66;47.18
33185;BME280;19550;42.872;25.494;2023-04-09T08:28:03;96689.47;;;14.60;46.00
33185;BME280;19550;42.872;25.494;2023-04-09T08:30:30;96694.09;;;14.77;46.56
33185;BME280;19550;42.872;25.494;2023-04-09T08:32:58;96703.13;;;14.24;44.36
33185;BME280;19550;42.872;25.494;2023-04-09T08:35:25;96706.34;;;14.64;46.90
33185;BME280;19550;42.872;25.494;2023-04-09T08:37:54;96712.63;;;14.61;45.37
33185;BME280;19550;42.872;25.494;2023-04-09T08:40:21;96709.47;;;14.83;44.88
33185;BME280;19550;42.872;25.494;2023-04-09T08:42:52;96718.88;;;14.58;44.19
33185;BME280;19550;42.872;25.494;2023-04-09T08:45:20;96707.38;;;14.59;42.64
33185;BME280;19550;42.872;25.494;2023-04-09T08:47:48;96711.81;;;15.02;44.06
33185;BME280;19550;42.872;25.494;2023-04-09T08:50:15;96705.53;;;15.38;44.83
33185;BME280;19550;42.872;25.494;2023-04-09T08:52:45;96693.69;;;15.98;45.53
33185;BME280;19550;42.872;25.494;2023-04-09T08:55:13;96696.03;;;16.45;44.27
33185;BME280;19550;42.872;25.494;2023-04-09T08:57:40;96706.75;;;16.43;41.53
33185;BME280;19550;42.872;25.494;2023-04-09T09:00:08;96700.22;;;16.51;44.41
33185;BME280;19550;42.872;25.494;2023-04-09T09:02:35;96704.41;;;16.81;40.65
33185;BME280;19550;42.872;25.494;2023-04-09T09:05:03;96694.28;;;16.40;39.95
33185;BME280;19550;42.872;25.494;2023-04-09T09:07:30;96690.41;;;16.69;42.43
33185;BME280;19550;42.872;25.494;2023-04-09T09:09:59;96685.97;;;16.56;39.77
33185;BME280;19550;42.872;25.494;2023-04-09T09:12:37;96678.56;;;16.48;41.74
33185;BME280;19550;42.872;25.494;2023-04-09T09:15:05;96686.66;;;16.77;46.14
33185;BME280;19550;42.872;25.494;2023-04-09T09:17:52;96687.63;;;16.81;47.70
33185;BME280;19550;42.872;25.494;2023-04-09T09:20:21;96687.72;;;16.85;48.98
33185;BME280;19550;42.872;25.494;2023-04-09T09:22:48;96691.25;;;17.09;49.36
33185;BME280;19550;42.872;25.494;2023-04-09T09:25:16;96688.44;;;17.09;47.80
33185;BME280;19550;42.872;25.494;2023-04-09T09:27:49;96693.69;;;16.71;47.66
33185;BME280;19550;42.872;25.494;2023-04-09T09:30:23;96699.16;;;16.43;48.35
33185;BME280;19550;42.872;25.494;2023-04-09T09:32:51;96701.53;;;16.65;48.17
33185;BME280;19550;42.872;25.494;2023-04-09T09:35:19;96694.88;;;16.46;47.19
33185;BME280;19550;42.872;25.494;2023-04-09T09:37:46;96698.59;;;16.74;49.20
33185;BME280;19550;42.872;25.494;2023-04-09T09:40:26;96701.75;;;16.73;49.78
33185;BME280;19550;42.872;25.494;2023-04-09T09:42:56;96703.41;;;16.61;50.77
33185;BME280;19550;42.872;25.494;2023-04-09T09:45:24;96690.69;;;16.15;49.21
33185;BME280;19550;42.872;25.494;2023-04-09T09:47:51;96693.69;;;16.71;50.12
33185;BME280;19550;42.872;25.494;2023-04-09T09:50:19;96703.41;;;16.61;46.33
33185;BME280;19550;42.872;25.494;2023-04-09T09:52:49;96697.31;;;16.11;47.49
33185;BME280;19550;42.872;25.494;2023-04-09T09:55:20;96703.72;;;15.99;47.87
33185;BME280;19550;42.872;25.494;2023-04-09T09:57:51;96699.84;;;15.79;47.09
33185;BME280;19550;42.872;25.494;2023-04-09T10:00:21;96685.44;;;15.44;45.59
33185;BME280;19550;42.872;25.494;2023-04-09T10:02:55;96692.25;;;15.56;47.67
33185;BME280;19550;42.872;25.494;2023-04-09T10:05:23;96692.13;;;15.64;48.17
33185;BME280;19550;42.872;25.494;2023-04-09T10:07:53;96701.72;;;15.75;45.91
33185;BME280;19550;42.872;25.494;2023-04-09T10:10:20;96692.63;;;15.66;48.83
33185;BME280;19550;42.872;25.494;2023-04-09T10:12:48;96689.63;;;15.50;48.82
33185;BME280;19550;42.872;25.494;2023-04-09T10:15:16;96689.22;;;15.28;48.18
33185;BME280;19550;42.872;25.494;2023-04-09T10:17:44;96688.47;;;15.19;46.69
33185;BME280;19550;42.872;25.494;2023-04-09T10:20:15;96686.84;;;15.18;50.39
33185;BME280;19550;42.872;25.494;2023-04-09T10:22:47;96687.00;;;15.21;47.56
33185;BME280;19550;42.872;25.494;2023-04-09T10:25:16;96676.91;;;15.29;47.09
33185;BME280;19550;42.872;25.494;2023-04-09T10:27:43;96673.69;;;15.18;48.99
33185;BME280;19550;42.872;25.494;2023-04-09T10:30:30;96685.66;;;15.06;49.25
33185;BME280;19550;42.872;25.494;2023-04-09T10:33:08;96676.38;;;15.15;47.10
33185;BME280;19550;42.872;25.494;2023-04-09T10:35:35;96672.88;;;15.18;48.29
33185;BME280;19550;42.872;25.494;2023-04-09T10:38:02;96672.31;;;15.24;48.24
33185;BME280;19550;42.872;25.494;2023-04-09T10:40:32;96661.03;;;15.21;47.81
33185;BME280;19550;42.872;25.494;2023-04-09T10:43:00;96666.75;;;15.24;48.62
33185;BME280;19550;42.872;25.494;2023-04-09T10:45:38;96659.78;;;15.30;47.70
33185;BME280;19550;42.872;25.494;2023-04-09T10:48:11;96663.25;;;15.15;47.98
33185;BME280;19550;42.872;25.494;2023-04-09T10:50:41;96667.41;;;15.09;50.18
33185;BME280;19550;42.872;25.494;2023-04-09T10:53:20;96674.06;;;14.96;49.17
33185;BME280;19550;42.872;25.494;2023-04-09T10:55:48;96667.19;;;15.14;48.45
33185;BME280;19550;42.872;25.494;2023-04-09T10:58:15;96669.72;;;15.07;47.40
33185;BME280;19550;42.872;25.494;2023-04-09T11:00:44;96652.97;;;15.07;48.70
33185;BME280;19550;42.872;25.494;2023-04-09T11:03:20;96649.38;;;15.19;47.73
33185;BME280;19550;42.872;25.494;2023-04-09T11:05:51;96648.25;;;15.32;49.24
33185;BME280;19550;42.872;25.494;2023-04-09T11:08:19;96650.31;;;15.23;45.87
33185;BME280;19550;42.872;25.494;2023-04-09T11:10:46;96654.00;;;15.35;44.92
33185;BME280;19550;42.872;25.494;2023-04-09T11:13:14;96646.88;;;15.38;43.28
33185;BME280;19550;42.872;25.494;2023-04-09T11:15:43;96653.28;;;15.38;44.79
33185;BME280;19550;42.872;25.494;2023-04-09T11:18:13;96648.63;;;15.42;45.93
33185;BME280;19550;42.872;25.494;2023-04-09T11:20:42;96640.72;;;15.44;47.04
33185;BME280;19550;42.872;25.494;2023-04-09T11:23:09;96648.63;;;15.42;47.86
33185;BME280;19550;42.872;25.494;2023-04-09T11:25:37;96642.56;;;15.28;47.48
33185;BME280;19550;42.872;25.494;2023-04-09T11:28:05;96643.72;;;15.27;48.58
33185;BME280;19550;42.872;25.494;2023-04-09T11:30:33;96644.75;;;15.23;47.49
33185;BME280;19550;42.872;25.494;2023-04-09T11:33:00;96641.88;;;14.98;46.63
33185;BME280;19550;42.872;25.494;2023-04-09T11:35:27;96643.16;;;15.01;48.03
33185;BME280;19550;42.872;25.494;2023-04-09T11:37:56;96635.47;;;14.98;48.90
33185;BME280;19550;42.872;25.494;2023-04-09T11:40:25;96635.25;;;15.03;48.26
33185;BME280;19550;42.872;25.494;2023-04-09T11:42:54;96629.59;;;15.11;47.44
33185;BME280;19550;42.872;25.494;2023-04-09T11:45:25;96635.16;;;15.11;45.82
33185;BME280;19550;42.872;25.494;2023-04-09T11:47:52;96627.75;;;15.16;47.03
33185;BME280;19550;42.872;25.494;2023-04-09T11:50:20;96625.06;;;15.19;47.05
33185;BME280;19550;42.872;25.494;2023-04-09T11:52:48;96628.44;;;15.13;47.11
33185;BME280;19550;42.872;25.494;2023-04-09T11:55:24;96627.13;;;15.10;47.34
33185;BME280;19550;42.872;25.494;2023-04-09T11:57:52;96617.19;;;14.88;49.21
33185;BME280;19550;42.872;25.494;2023-04-09T12:00:20;96617.31;;;14.92;49.34
33185;BME280;19550;42.872;25.494;2023-04-09T12:02:50;96614.50;;;14.92;50.29
33185;BME280;19550;42.872;25.494;2023-04-09T12:05:21;96613.03;;;14.94;48.25
33185;BME280;19550;42.872;25.494;2023-04-09T12:07:49;96623.25;;;15.02;47.69
33185;BME280;19550;42.872;25.494;2023-04-09T12:10:16;96612.34;;;14.77;48.65
33185;BME280;19550;42.872;25.494;2023-04-09T12:12:45;96616.25;;;14.63;50.11
33185;BME280;19550;42.872;25.494;2023-04-09T12:15:23;96611.47;;;14.64;49.00
33185;BME280;19550;42.872;25.494;2023-04-09T12:17:52;96615.69;;;14.70;49.76
33185;BME280;19550;42.872;25.494;2023-04-09T12:20:32;96615.97;;;14.77;49.42
33185;BME280;19550;42.872;25.494;2023-04-09T12:23:00;96613.38;;;14.72;48.84
33185;BME280;19550;42.872;25.494;2023-04-09T12:25:28;96614.53;;;14.71;48.16
33185;BME280;19550;42.872;25.494;2023-04-09T12:27:57;96606.59;;;14.82;49.21
33185;BME280;19550;42.872;25.494;2023-04-09T12:30:24;96614.97;;;14.82;48.68
33185;BME280;19550;42.872;25.494;2023-04-09T12:32:52;96611.09;;;14.74;49.72
33185;BME280;19550;42.872;25.494;2023-04-09T12:35:19;96607.13;;;14.75;51.02
33185;BME280;19550;42.872;25.494;2023-04-09T12:37:46;96615.56;;;14.66;51.07
33185;BME280;19550;42.872;25.494;2023-04-09T12:40:13;96607.47;;;14.74;50.35
33185;BME280;19550;42.872;25.494;2023-04-09T12:42:41;96613.91;;;14.86;51.19
33185;BME280;19550;42.872;25.494;2023-04-09T12:45:11;96600.56;;;14.92;51.22
33185;BME280;19550;42.872;25.494;2023-04-09T12:47:38;96604.75;;;14.98;51.19
33185;BME280;19550;42.872;25.494;2023-04-09T12:50:07;96606.06;;;15.00;50.40
33185;BME280;19550;42.872;25.494;2023-04-09T12:52:34;96605.59;;;14.98;50.99
33185;BME280;19550;42.872;25.494;2023-04-09T12:55:01;96601.84;;;14.94;51.06